Time;durP1;ratioP1;P1;durP2;ratioP2;P2;SDS_P1;SDS_P2;PMS_P1;PMS_P2;Temp;Humidity;BMP_temperature;BMP_pressure;BME280_temperature;BME280_humidity;BME280_pressure;Samples;Min_cycle;Max_cycle;Signal;HPM_P1;HPM_P2
2023/01/27 00:00:15;;;;;;;0.70;0.70;;;;;;;-2.72;94.37;97071.78;29373;280;63004;-59
2023/01/27 00:00:53;;;;;;;0.70;0.70;;;;;;;-2.68;94.32;97071.38;29373;198;63009;-60
2023/01/27 00:01:24;;;;;;;0.70;0.70;;;;;;;-2.65;94.11;97070.97;29371;234;64004;-60
2023/01/27 00:01:58;;;;;;;0.70;0.70;;;;;;;-2.63;93.82;97074.25;29373;202;63008;-59
2023/01/27 00:02:29;;;;;;;0.70;0.70;;;;;;;-2.62;94.00;97079.34;29373;265;63005;-59
2023/01/27 00:03:01;;;;;;;0.70;0.70;;;;;;;-2.65;93.72;97073.63;29373;208;63009;-60
2023/01/27 00:03:34;;;;;;;0.70;0.70;;;;;;;-2.68;93.82;97071.38;29372;226;64005;-60
2023/01/27 00:04:05;;;;;;;0.70;0.70;;;;;;;-2.68;93.90;97068.72;29373;257;63009;-59
2023/01/27 00:04:36;;;;;;;0.70;0.70;;;;;;;-2.76;93.83;97065.25;29373;237;63005;-59
2023/01/27 00:05:10;;;;;;;0.70;0.70;;;;;;;-2.76;94.15;97073.22;29371;204;64004;-58
2023/01/27 00:05:45;;;;;;;0.70;0.70;;;;;;;-2.80;94.29;97066.69;29373;197;63009;-60
2023/01/27 00:06:16;;;;;;;0.85;0.85;;;;;;;-2.81;94.31;97065.06;29371;212;64013;-60
2023/01/27 00:06:49;;;;;;;0.62;0.62;;;;;;;-2.77;94.79;97071.56;29373;229;63004;-60
2023/01/27 00:07:21;;;;;;;0.70;0.70;;;;;;;-2.78;95.04;97074.47;29371;242;64013;-59
2023/01/27 00:07:52;;;;;;;0.75;0.75;;;;;;;-2.74;94.95;97067.69;29371;192;64009;-60
2023/01/27 00:08:25;;;;;;;0.70;0.70;;;;;;;-2.70;94.67;97072.41;29373;213;63009;-59
2023/01/27 00:08:57;;;;;;;1.00;1.00;;;;;;;-2.73;94.79;97072.81;29373;211;63004;-58
2023/01/27 00:09:31;;;;;;;0.70;0.70;;;;;;;-2.76;94.61;97067.91;29373;248;63008;-59
2023/01/27 00:10:04;;;;;;;0.90;0.90;;;;;;;-2.79;94.57;97073.66;29373;226;63005;-59
2023/01/27 00:10:35;;;;;;;0.70;0.70;;;;;;;-2.82;94.46;97068.75;29373;267;63009;-59
2023/01/27 00:13:36;;;;;;;0.70;0.70;;;;;;;-2.85;95.16;97068.31;29371;252;64013;-60
2023/01/27 00:14:07;;;;;;;0.60;0.60;;;;;;;-2.88;95.33;97069.56;29373;246;63004;-60
2023/01/27 00:14:38;;;;;;;0.80;0.80;;;;;;;-2.89;95.42;97067.09;29373;245;63009;-58
2023/01/27 00:15:12;;;;;;;0.65;0.65;;;;;;;-2.91;95.47;97069.13;29371;213;64009;-59
2023/01/27 00:15:43;;;;;;;0.70;0.70;;;;;;;-2.88;95.71;97074.03;29373;210;63009;-60
2023/01/27 00:16:14;;;;;;;0.70;0.70;;;;;;;-2.88;95.88;97072.19;29373;210;63017;-61
2023/01/27 00:16:46;;;;;;;0.70;0.70;;;;;;;-2.88;95.55;97058.94;29373;203;63008;-60
2023/01/27 00:17:17;;;;;;;0.70;0.70;;;;;;;-2.90;95.77;97066.28;29373;243;63004;-59
2023/01/27 00:17:48;;;;;;;0.70;0.70;;;;;;;-2.92;95.68;97073.63;29371;209;64014;-59
2023/01/27 00:18:22;;;;;;;0.70;0.70;;;;;;;-2.90;95.72;97071.59;29371;234;64009;-58
2023/01/27 00:18:53;;;;;;;0.70;0.70;;;;;;;-2.87;96.07;97071.19;29373;202;63009;-58
2023/01/27 00:19:25;;;;;;;0.70;0.70;;;;;;;-2.73;95.75;97072.81;29373;227;63005;-59
2023/01/27 00:19:58;;;;;;;1.12;1.12;;;;;;;-2.66;94.68;97062.19;29373;202;63005;-59
2023/01/27 00:24:41;;;;;;;0.98;0.98;;;;;;;-2.52;92.57;97065.66;29373;208;63008;-60
2023/01/27 00:25:13;;;;;;;0.70;0.70;;;;;;;-2.53;92.62;97056.88;29373;204;63005;-59
2023/01/27 00:25:49;;;;;;;4.85;4.50;;;;;;;-2.48;92.24;97056.25;29373;222;63015;-60
2023/01/27 00:26:20;;;;;;;1.20;1.20;;;;;;;-2.44;91.92;97054.81;29373;219;63000;-58
2023/01/27 00:26:55;;;;;;;0.70;0.70;;;;;;;-2.50;91.52;97060.97;29373;256;63014;-59
2023/01/27 00:27:26;;;;;;;0.90;0.90;;;;;;;-2.52;91.88;97057.69;29373;219;63005;-59
2023/01/27 00:27:58;;;;;;;0.80;0.80;;;;;;;-2.56;91.77;97057.28;29373;228;63009;-58
2023/01/27 00:28:30;;;;;;;0.70;0.70;;;;;;;-2.61;91.86;97058.91;29371;215;64009;-59
2023/01/27 00:29:04;;;;;;;0.70;0.70;;;;;;;-2.64;92.53;97064.63;29373;211;63009;-60
2023/01/27 00:29:36;;;;;;;0.80;0.80;;;;;;;-2.65;93.01;97061.16;29373;240;63004;-59
2023/01/27 00:30:10;;;;;;;6.62;6.28;;;;;;;-2.69;92.75;97057.28;29373;215;63009;-59
2023/01/27 00:30:42;;;;;;;0.70;0.70;;;;;;;-2.73;92.90;97053.38;29373;322;63018;-58
2023/01/27 00:33:48;;;;;;;0.70;0.70;;;;;;;-2.88;94.17;97063.41;29371;197;64009;-58
2023/01/27 00:34:19;;;;;;;0.70;0.70;;;;;;;-2.92;94.24;97063.00;29373;233;63015;-59
2023/01/27 00:34:50;;;;;;;0.70;0.70;;;;;;;-2.93;94.25;97064.03;29373;239;63005;-58
2023/01/27 00:35:23;;;;;;;1.85;1.83;;;;;;;-2.94;94.57;97057.09;29373;222;63009;-60
2023/01/27 00:36:06;;;;;;;0.70;0.70;;;;;;;-2.92;95.15;97056.88;29373;213;63004;-59
2023/01/27 00:36:39;;;;;;;0.70;0.70;;;;;;;-2.92;95.22;97057.69;29373;212;63009;-58
2023/01/27 00:37:11;;;;;;;0.65;0.65;;;;;;;-2.83;95.08;97055.66;29373;197;63004;-59
2023/01/27 00:37:46;;;;;;;1.00;1.00;;;;;;;-2.81;94.81;97069.56;29373;285;63009;-59
2023/01/27 00:38:17;;;;;;;0.60;0.60;;;;;;;-2.77;94.63;97055.62;29373;262;63004;-59
2023/01/27 00:38:48;;;;;;;0.70;0.70;;;;;;;-2.76;94.77;97056.47;29371;227;64013;-59
2023/01/27 00:39:19;;;;;;;1.00;1.00;;;;;;;-2.74;94.72;97055.22;29373;247;63002;-59
2023/01/27 00:39:51;;;;;;;0.70;0.70;;;;;;;-2.75;94.32;97064.22;29373;216;63009;-59
2023/01/27 00:40:22;;;;;;;0.70;0.70;;;;;;;-2.78;94.49;97062.00;29373;311;63005;-59
2023/01/27 00:41:45;;;;;;;0.70;0.70;;;;;;;-2.81;94.65;97070.38;29373;209;63005;-59
2023/01/27 00:42:16;;;;;;;0.70;0.70;;;;;;;-2.83;94.42;97064.44;29373;261;63009;-60
2023/01/27 00:42:47;;;;;;;0.70;0.70;;;;;;;-2.85;94.72;97069.16;29373;202;63005;-60
2023/01/27 00:43:21;;;;;;;0.75;0.75;;;;;;;-2.80;94.62;97069.34;29373;212;63009;-59
2023/01/27 00:43:53;;;;;;;0.70;0.70;;;;;;;-2.74;94.67;97060.53;29371;197;64009;-59
2023/01/27 00:44:24;;;;;;;0.98;0.98;;;;;;;-2.63;93.79;97058.28;29373;223;63009;-59
2023/01/27 00:45:49;;;;;;;1.48;1.37;;;;;;;-2.52;92.78;97068.31;29373;254;63009;-59
2023/01/27 00:46:22;;;;;;;0.70;0.70;;;;;;;-2.57;92.80;97066.28;29373;207;63011;-59
2023/01/27 00:46:53;;;;;;;0.70;0.70;;;;;;;-2.64;92.26;97064.63;29373;329;63009;-58
2023/01/27 00:47:24;;;;;;;0.70;0.70;;;;;;;-2.70;92.85;97064.44;29373;239;63005;-59
2023/01/27 00:47:56;;;;;;;0.70;0.70;;;;;;;-2.70;92.91;97063.59;29373;233;63009;-59
2023/01/27 00:48:27;;;;;;;0.62;0.62;;;;;;;-2.68;93.61;97068.72;29373;203;63005;-61
2023/01/27 00:48:59;;;;;;;0.70;0.70;;;;;;;-2.64;93.57;97067.28;29371;250;64013;-58
2023/01/27 00:49:35;;;;;;;0.70;0.70;;;;;;;-2.62;93.19;97067.91;29373;261;63005;-59
2023/01/27 00:50:07;;;;;;;0.60;0.60;;;;;;;-2.66;92.90;97058.72;29371;204;64013;-60
2023/01/27 00:50:40;;;;;;;0.70;0.70;;;;;;;-2.69;92.75;97067.91;29371;214;64009;-59
2023/01/27 00:51:12;;;;;;;0.70;0.70;;;;;;;-2.72;93.03;97061.16;29373;292;63009;-59
2023/01/27 00:51:44;;;;;;;0.88;0.88;;;;;;;-2.75;93.50;97064.22;29373;204;63004;-59
2023/01/27 00:52:16;;;;;;;0.60;0.60;;;;;;;-2.74;93.32;97073.00;29373;216;63009;-59
2023/01/27 00:52:47;;;;;;;2.00;1.87;;;;;;;-2.71;93.57;97065.44;29373;202;63004;-59
2023/01/27 00:53:20;;;;;;;0.90;0.90;;;;;;;-2.64;92.96;97064.63;29373;266;63009;-59
2023/01/27 00:53:51;;;;;;;0.68;0.68;;;;;;;-2.66;93.02;97064.03;29373;212;63004;-60
2023/01/27 00:54:23;;;;;;;0.70;0.70;;;;;;;-2.62;92.76;97059.94;29373;204;63009;-59
2023/01/27 00:54:54;;;;;;;0.70;0.70;;;;;;;-2.62;92.68;97063.41;29372;222;64005;-59
2023/01/27 00:55:25;;;;;;;0.70;0.70;;;;;;;-2.57;92.54;97063.62;29371;255;64014;-58
2023/01/27 00:55:57;;;;;;;1.12;1.02;;;;;;;-2.55;92.29;97066.06;29373;235;63007;-60
2023/01/27 00:56:29;;;;;;;0.70;0.70;;;;;;;-2.59;91.93;97062.19;29373;216;63009;-58
2023/01/27 00:57:03;;;;;;;0.70;0.70;;;;;;;-2.62;92.02;97062.59;29373;202;63005;-59
2023/01/27 00:57:34;;;;;;;2.97;2.87;;;;;;;-2.57;92.16;97065.44;29373;218;63014;-59
2023/01/27 00:58:05;;;;;;;0.93;0.93;;;;;;;-2.52;91.85;97065.66;29373;235;63005;-60
2023/01/27 00:58:37;;;;;;;3.42;3.33;;;;;;;-2.52;91.47;97065.66;29373;223;63004;-59
2023/01/27 00:59:08;;;;;;;0.70;0.70;;;;;;;-2.57;91.67;97065.44;29373;223;63004;-60
2023/01/27 00:59:40;;;;;;;0.70;0.70;;;;;;;-2.64;91.21;97061.97;29373;207;63020;-60
2023/01/27 01:00:14;;;;;;;0.70;0.70;;;;;;;-2.72;91.80;97058.50;29373;207;63008;-60
2023/01/27 01:00:45;;;;;;;0.60;0.60;;;;;;;-2.75;92.24;97071.38;29371;236;64013;-59
2023/01/27 01:01:17;;;;;;;1.92;1.83;;;;;;;-2.61;92.01;97064.22;29373;211;63004;-61
2023/01/27 01:01:48;;;;;;;2.70;2.50;;;;;;;-2.50;91.30;97066.28;29373;233;63008;-59
2023/01/27 01:02:20;;;;;;;1.15;1.15;;;;;;;-2.47;91.03;97065.87;29373;202;63005;-59
2023/01/27 01:02:54;;;;;;;0.90;0.90;;;;;;;-2.48;90.78;97064.22;29373;202;63009;-60
2023/01/27 01:03:30;;;;;;;0.70;0.70;;;;;;;-2.49;91.20;97070.56;29373;214;63005;-59
2023/01/27 01:04:02;;;;;;;0.70;0.70;;;;;;;-2.56;91.23;97072.41;29371;197;64013;-60
2023/01/27 01:04:36;;;;;;;0.70;0.70;;;;;;;-2.63;91.50;97076.91;29373;256;63009;-61
2023/01/27 01:05:08;;;;;;;0.70;0.70;;;;;;;-2.60;92.07;97065.87;29373;212;63009;-58
2023/01/27 01:05:40;;;;;;;0.70;0.70;;;;;;;-2.62;92.13;97067.91;29373;225;63005;-60
2023/01/27 01:06:14;;;;;;;0.75;0.75;;;;;;;-2.67;91.89;97065.84;29373;233;63019;-60
2023/01/27 01:06:46;;;;;;;0.80;0.80;;;;;;;-2.65;92.46;97069.13;29373;224;63000;-60
2023/01/27 01:07:17;;;;;;;0.90;0.90;;;;;;;-2.59;91.72;97073.63;29373;212;63009;-59
2023/01/27 01:07:48;;;;;;;0.70;0.70;;;;;;;-2.58;91.80;97067.28;29372;264;64004;-59
2023/01/27 01:08:19;;;;;;;0.70;0.70;;;;;;;-2.62;91.65;97067.91;29373;211;63009;-59
2023/01/27 01:08:51;;;;;;;0.60;0.60;;;;;;;-2.69;91.95;97067.91;29373;269;63004;-59
2023/01/27 01:09:23;;;;;;;0.80;0.80;;;;;;;-2.65;92.46;97068.31;29371;202;64013;-60
2023/01/27 01:09:55;;;;;;;0.80;0.80;;;;;;;-2.65;91.95;97068.31;29373;227;63005;-60
2023/01/27 01:10:26;;;;;;;0.70;0.70;;;;;;;-2.68;92.09;97066.06;29373;202;63005;-60
2023/01/27 01:10:58;;;;;;;0.70;0.70;;;;;;;-2.73;92.49;97066.66;29371;216;64009;-59
2023/01/27 01:11:29;;;;;;;0.70;0.70;;;;;;;-2.75;92.84;97069.53;29371;230;64013;-59
2023/01/27 01:12:02;;;;;;;0.98;0.98;;;;;;;-2.78;92.77;97067.31;29373;234;63005;-59
2023/01/27 01:12:33;;;;;;;0.70;0.70;;;;;;;-2.82;92.85;97071.41;29373;258;63009;-60
2023/01/27 01:13:10;;;;;;;0.60;0.60;;;;;;;-2.86;93.39;97072.81;29373;271;63005;-60
2023/01/27 01:13:43;;;;;;;0.70;0.70;;;;;;;-2.82;93.58;97073.22;29373;196;63004;-59
2023/01/27 01:14:14;;;;;;;0.62;0.62;;;;;;;-2.80;93.86;97072.00;29373;213;63004;-60
2023/01/27 01:14:45;;;;;;;0.68;0.68;;;;;;;-2.81;93.54;97070.38;29373;250;63009;-59
2023/01/27 01:15:17;;;;;;;0.70;0.70;;;;;;;-2.84;93.70;97076.09;29373;219;63004;-61
2023/01/27 01:15:48;;;;;;;0.62;0.62;;;;;;;-2.87;93.64;97073.84;29373;275;63009;-59
2023/01/27 01:16:22;;;;;;;0.70;0.70;;;;;;;-2.90;93.70;97076.91;29374;197;63004;-60
2023/01/27 01:16:55;;;;;;;0.60;0.60;;;;;;;-2.86;94.39;97079.97;29371;239;64013;-61
2023/01/27 01:17:26;;;;;;;0.70;0.70;;;;;;;-2.79;94.14;97073.66;29373;204;63005;-60
2023/01/27 01:18:00;;;;;;;0.70;0.70;;;;;;;-2.67;93.37;97073.00;29373;255;63009;-59
2023/01/27 01:18:32;;;;;;;0.85;0.82;;;;;;;-2.61;93.01;97072.19;29371;254;64009;-60
2023/01/27 01:19:03;;;;;;;1.77;1.67;;;;;;;-2.53;92.70;97083.44;29373;199;63009;-59
2023/01/27 01:19:35;;;;;;;0.70;0.70;;;;;;;-2.49;91.94;97078.53;29373;215;63011;-60
2023/01/27 01:20:07;;;;;;;0.70;0.70;;;;;;;-2.49;91.82;97078.53;29373;239;63009;-59
2023/01/27 01:20:42;;;;;;;0.70;0.70;;;;;;;-2.53;91.93;97072.81;29373;220;63005;-60
2023/01/27 01:21:14;;;;;;;0.70;0.70;;;;;;;-2.53;91.63;97078.12;29373;205;63009;-61
2023/01/27 01:21:45;;;;;;;0.70;0.70;;;;;;;-2.54;91.94;97075.66;29373;263;63004;-59
2023/01/27 01:22:19;;;;;;;1.62;1.55;;;;;;;-2.58;91.91;97074.44;29373;225;63009;-60
2023/01/27 01:22:51;;;;;;;0.70;0.70;;;;;;;-2.59;92.16;97078.94;29373;196;63004;-58
2023/01/27 01:23:22;;;;;;;0.60;0.60;;;;;;;-2.59;92.18;97072.81;29371;254;64013;-59
2023/01/27 01:23:53;;;;;;;1.40;1.40;;;;;;;-2.61;92.41;97077.50;29373;227;63004;-60
2023/01/27 01:24:24;;;;;;;0.70;0.70;;;;;;;-2.65;92.18;97071.78;29373;196;63008;-59
2023/01/27 01:24:59;;;;;;;0.70;0.70;;;;;;;-2.70;92.46;97083.03;29373;265;63005;-60
2023/01/27 01:25:30;;;;;;;0.70;0.70;;;;;;;-2.75;92.48;97074.03;29373;242;63009;-59
2023/01/27 01:26:04;;;;;;;0.70;0.70;;;;;;;-2.78;92.95;97080.59;29373;233;63005;-59
2023/01/27 01:26:36;;;;;;;0.70;0.70;;;;;;;-2.79;93.31;97084.25;29373;197;63009;-59
2023/01/27 01:27:07;;;;;;;0.70;0.70;;;;;;;-2.74;93.54;97081.78;29373;212;63005;-59
2023/01/27 01:27:38;;;;;;;0.70;0.70;;;;;;;-2.76;93.43;97089.16;29373;230;63009;-60
2023/01/27 01:28:09;;;;;;;0.70;0.70;;;;;;;-2.79;93.14;97081.63;29373;263;63005;-59
2023/01/27 01:28:42;;;;;;;0.70;0.70;;;;;;;-2.83;93.26;97083.03;29371;222;64013;-59
2023/01/27 01:29:13;;;;;;;0.80;0.80;;;;;;;-2.73;93.58;97078.12;29373;210;63014;-58
2023/01/27 01:29:44;;;;;;;0.70;0.70;;;;;;;-2.68;93.24;97074.03;29373;214;63009;-60
2023/01/27 01:30:17;;;;;;;0.70;0.70;;;;;;;-2.67;93.31;97080.97;29373;246;63004;-59
2023/01/27 01:30:48;;;;;;;0.80;0.80;;;;;;;-2.71;93.03;97077.91;29373;210;63014;-59
2023/01/27 01:31:21;;;;;;;0.70;0.70;;;;;;;-2.75;93.40;97074.84;29373;234;63004;-60
2023/01/27 01:31:52;;;;;;;0.70;0.70;;;;;;;-2.79;93.40;97078.12;29373;197;63008;-59
2023/01/27 01:32:23;;;;;;;0.70;0.70;;;;;;;-2.83;93.91;97083.03;29373;202;63005;-60
2023/01/27 01:32:55;;;;;;;0.70;0.70;;;;;;;-2.87;93.85;97081.81;29373;209;63009;-59
2023/01/27 01:33:26;;;;;;;0.70;0.70;;;;;;;-2.89;94.27;97075.06;29373;209;63013;-59
2023/01/27 01:33:58;;;;;;;0.80;0.80;;;;;;;-2.82;94.64;97078.53;29371;210;64013;-59
2023/01/27 01:34:29;;;;;;;0.70;0.70;;;;;;;-2.81;94.43;97069.56;29373;239;63005;-59
2023/01/27 01:35:00;;;;;;;0.70;0.70;;;;;;;-2.80;94.11;97079.97;29371;238;64009;-59
2023/01/27 01:35:37;;;;;;;0.60;0.60;;;;;;;-2.81;94.18;97080.19;29373;200;63004;-60
2023/01/27 01:36:12;;;;;;;0.60;0.60;;;;;;;-2.76;94.43;97078.53;29373;204;63009;-60
2023/01/27 01:36:43;;;;;;;0.70;0.70;;;;;;;-2.73;93.88;97077.28;29373;197;63004;-57
2023/01/27 01:37:16;;;;;;;0.70;0.70;;;;;;;-2.71;93.81;97083.22;29373;197;63009;-59
2023/01/27 01:37:47;;;;;;;0.70;0.70;;;;;;;-2.74;94.15;97080.97;29373;230;63004;-59
2023/01/27 01:38:19;;;;;;;0.70;0.70;;;;;;;-2.78;93.78;97080.59;29373;265;63008;-59
2023/01/27 01:38:55;;;;;;;0.70;0.70;;;;;;;-2.77;94.40;97074.22;29373;211;63004;-58
2023/01/27 01:39:26;;;;;;;0.70;0.70;;;;;;;-2.73;94.28;97072.81;29371;224;64013;-59
2023/01/27 01:40:00;;;;;;;2.15;2.05;;;;;;;-2.73;94.24;97078.12;29373;261;63005;-59
2023/01/27 01:40:32;;;;;;;0.90;0.90;;;;;;;-2.76;93.94;97067.06;29373;241;63009;-58
2023/01/27 01:41:05;;;;;;;0.70;0.70;;;;;;;-2.80;94.24;97072.00;29373;199;63005;-58
2023/01/27 01:41:38;;;;;;;0.70;0.70;;;;;;;-2.81;94.21;97075.69;29373;269;63009;-59
2023/01/27 01:42:10;;;;;;;0.70;0.70;;;;;;;-2.84;94.24;97076.09;29371;224;64009;-59
2023/01/27 01:43:15;;;;;;;0.70;0.70;;;;;;;-2.89;94.34;97078.53;29373;221;63009;-58
2023/01/27 01:43:49;;;;;;;0.70;0.70;;;;;;;-2.92;94.75;97070.97;29373;202;63004;-58
2023/01/27 01:44:22;;;;;;;0.70;0.70;;;;;;;-2.94;94.77;97074.84;29373;264;63009;-58
2023/01/27 01:45:43;;;;;;;0.60;0.60;;;;;;;-2.97;95.51;97073.41;29373;246;63004;-59
2023/01/27 01:46:15;;;;;;;0.70;0.70;;;;;;;-2.97;95.44;97076.06;29373;217;63008;-59
2023/01/27 01:46:47;;;;;;;0.68;0.68;;;;;;;-2.99;95.73;97072.81;29371;220;64009;-59
2023/01/27 01:47:18;;;;;;;0.70;0.70;;;;;;;-3.00;95.90;97070.34;29373;201;63009;-58
2023/01/27 01:47:51;;;;;;;0.70;0.70;;;;;;;-3.02;96.25;97078.50;29373;199;63005;-59
2023/01/27 01:48:35;;;;;;;0.70;0.70;;;;;;;-3.05;96.09;97076.25;29373;210;63009;-58
2023/01/27 01:49:06;;;;;;;0.70;0.70;;;;;;;-3.05;96.54;97071.78;29373;225;63005;-59
2023/01/27 01:49:40;;;;;;;0.70;0.70;;;;;;;-3.04;96.38;97069.94;29373;229;63009;-59
2023/01/27 01:50:11;;;;;;;0.70;0.70;;;;;;;-3.02;96.44;97073.19;29373;202;63005;-59
2023/01/27 01:50:51;;;;;;;0.70;0.70;;;;;;;-3.04;96.63;97069.94;29373;197;63009;-59
2023/01/27 01:51:40;;;;;;;0.70;0.70;;;;;;;-3.04;96.92;97069.94;29373;254;63008;-58
2023/01/27 01:52:17;;;;;;;0.70;0.70;;;;;;;-3.04;96.82;97069.94;29371;226;64013;-58
2023/01/27 01:52:53;;;;;;;0.70;0.70;;;;;;;-3.04;96.89;97064.63;29373;213;63004;-58
2023/01/27 01:53:31;;;;;;;0.60;0.60;;;;;;;-3.02;96.87;97067.91;29373;251;63008;-58
2023/01/27 01:54:16;;;;;;;0.70;0.70;;;;;;;-3.00;97.38;97059.72;29373;225;63005;-59
2023/01/27 01:54:53;;;;;;;0.65;0.65;;;;;;;-3.01;97.34;97056.25;29373;218;63009;-59
2023/01/27 01:55:29;;;;;;;0.70;0.70;;;;;;;-2.99;97.40;97061.38;29373;231;63005;-58
2023/01/27 01:56:06;;;;;;;0.70;0.70;;;;;;;-3.00;97.15;97057.06;29373;208;63024;-58
2023/01/27 01:56:52;;;;;;;0.60;0.60;;;;;;;-3.04;97.16;97059.31;29373;230;63005;-58
2023/01/27 01:57:36;;;;;;;0.60;0.60;;;;;;;-3.03;97.19;97060.94;29371;227;64013;-59
2023/01/27 01:58:11;;;;;;;0.70;0.70;;;;;;;-2.95;97.17;97058.09;29373;210;63004;-59
2023/01/27 01:58:44;;;;;;;0.70;0.70;;;;;;;-2.92;97.26;97057.69;29373;256;63009;-58
2023/01/27 01:59:26;;;;;;;0.70;0.70;;;;;;;-2.93;96.98;97053.41;29373;287;63004;-60
2023/01/27 02:00:01;;;;;;;0.90;0.90;;;;;;;-2.91;96.83;97063.81;29373;196;63009;-58
2023/01/27 02:00:33;;;;;;;0.70;0.70;;;;;;;-2.93;96.81;97056.06;29373;223;63014;-59
2023/01/27 02:01:06;;;;;;;0.70;0.70;;;;;;;-2.88;96.59;97056.28;29373;203;63008;-59
2023/01/27 02:01:37;;;;;;;0.60;0.60;;;;;;;-2.77;96.11;97055.62;29373;205;63005;-60
2023/01/27 02:02:15;;;;;;;0.70;0.70;;;;;;;-2.77;95.41;97050.31;29371;212;64014;-59
2023/01/27 02:02:50;;;;;;;0.70;0.70;;;;;;;-2.82;95.42;97050.16;29373;239;63018;-59
2023/01/27 02:03:24;;;;;;;0.70;0.70;;;;;;;-2.85;95.11;97047.91;29373;203;63009;-59
2023/01/27 02:04:01;;;;;;;0.70;0.70;;;;;;;-2.90;95.46;97044.22;29373;252;63017;-59
2023/01/27 02:04:45;;;;;;;2.25;2.12;;;;;;;-2.91;95.33;97053.22;29373;286;63009;-58
2023/01/27 02:05:23;;;;;;;0.70;0.70;;;;;;;-2.94;95.86;97043.81;29373;226;63009;-59
2023/01/27 02:05:55;;;;;;;0.70;0.70;;;;;;;-2.94;95.78;97045.66;29373;233;63009;-59
2023/01/27 02:06:27;;;;;;;0.70;0.70;;;;;;;-2.95;96.12;97047.47;29373;216;63004;-59
2023/01/27 02:07:17;;;;;;;0.60;0.60;;;;;;;-2.98;96.00;97042.56;29373;202;63009;-58
2023/01/27 02:08:20;;;;;;;0.70;0.70;;;;;;;-3.00;96.10;97049.94;29371;231;64009;-58
2023/01/27 02:08:53;;;;;;;0.70;0.70;;;;;;;-3.01;96.60;97045.63;29373;218;63008;-58
2023/01/27 02:09:27;;;;;;;0.70;0.70;;;;;;;-3.01;96.89;97045.63;29371;255;64009;-59
2023/01/27 02:10:00;;;;;;;0.70;0.70;;;;;;;-3.01;96.87;97042.16;29371;237;64014;-58
2023/01/27 02:10:33;;;;;;;0.70;0.70;;;;;;;-3.02;97.12;97046.66;29373;214;63005;-59
2023/01/27 02:11:06;;;;;;;0.70;0.70;;;;;;;-3.03;97.02;97045.03;29373;232;63009;-58
2023/01/27 02:11:37;;;;;;;0.60;0.60;;;;;;;-3.03;97.30;97045.84;29373;224;63005;-58
2023/01/27 02:12:09;;;;;;;0.70;0.70;;;;;;;-3.03;97.17;97050.34;29373;208;63009;-59
2023/01/27 02:12:40;;;;;;;0.70;0.70;;;;;;;-3.04;97.58;97046.03;29373;244;63005;-59
2023/01/27 02:13:13;;;;;;;0.70;0.70;;;;;;;-3.05;97.25;97044.41;29373;211;63009;-58
2023/01/27 02:13:45;;;;;;;0.70;0.70;;;;;;;-3.05;97.67;97041.75;29373;197;63004;-58
2023/01/27 02:14:19;;;;;;;0.70;0.70;;;;;;;-3.04;97.50;97051.34;29373;210;63016;-59
2023/01/27 02:14:50;;;;;;;0.70;0.70;;;;;;;-3.05;97.86;97050.53;29373;240;63004;-58
2023/01/27 02:15:22;;;;;;;0.70;0.70;;;;;;;-3.03;98.16;97045.84;29371;227;64013;-57
2023/01/27 02:15:54;;;;;;;0.60;0.60;;;;;;;-3.03;97.85;97045.03;29373;222;63004;-59
2023/01/27 02:16:26;;;;;;;0.70;0.70;;;;;;;-3.04;97.96;97043.37;29373;212;63008;-59
2023/01/27 02:17:02;;;;;;;0.70;0.70;;;;;;;-3.05;98.18;97041.75;29373;229;63005;-60
2023/01/27 02:17:34;;;;;;;0.70;0.70;;;;;;;-3.05;98.02;97041.75;29373;222;63009;-58
2023/01/27 02:18:06;;;;;;;0.70;0.70;;;;;;;-3.06;98.05;97046.25;29373;210;63005;-59
2023/01/27 02:18:41;;;;;;;0.70;0.70;;;;;;;-3.06;98.08;97037.47;29373;199;63009;-58
2023/01/27 02:19:48;;;;;;;2.05;1.65;;;;;;;-3.05;98.34;97045.22;29373;203;63005;-59
2023/01/27 02:20:44;;;;;;;0.70;0.70;;;;;;;-2.99;98.63;97046.25;29373;202;63009;-58
2023/01/27 02:21:16;;;;;;;0.60;0.60;;;;;;;-2.99;98.24;97046.25;29371;220;64009;-59
2023/01/27 02:21:51;;;;;;;0.60;0.60;;;;;;;-2.99;98.04;97046.25;29373;233;63009;-58
2023/01/27 02:22:35;;;;;;;0.70;0.70;;;;;;;-3.00;98.28;97043.81;29373;242;63004;-59
2023/01/27 02:23:54;;;;;;;0.70;0.70;;;;;;;-3.00;97.92;97047.28;29373;243;63009;-58
2023/01/27 02:24:37;;;;;;;0.70;0.70;;;;;;;-3.00;98.11;97038.50;29371;215;64009;-59
2023/01/27 02:25:26;;;;;;;0.70;0.70;;;;;;;-3.00;97.76;97041.97;29373;234;63009;-58
2023/01/27 02:26:22;;;;;;;0.70;0.70;;;;;;;-2.99;97.80;97038.28;29373;322;63010;-59
2023/01/27 02:26:54;;;;;;;0.70;0.70;;;;;;;-2.93;97.86;97042.78;29373;207;63009;-59
2023/01/27 02:27:25;;;;;;;0.70;0.70;;;;;;;-2.94;97.47;97037.69;29373;232;63015;-59
2023/01/27 02:27:56;;;;;;;0.70;0.70;;;;;;;-2.96;97.29;97040.53;29373;202;63009;-58
2023/01/27 02:28:29;;;;;;;0.70;0.70;;;;;;;-2.97;97.51;97036.25;29373;252;63009;-58
2023/01/27 02:29:07;;;;;;;0.70;0.70;;;;;;;-2.98;97.21;97037.28;29373;261;63009;-58
2023/01/27 02:29:39;;;;;;;0.70;0.70;;;;;;;-2.98;97.51;97039.09;29371;205;64009;-59
2023/01/27 02:30:11;;;;;;;0.60;0.60;;;;;;;-2.98;97.47;97037.28;29371;196;64013;-59
2023/01/27 02:30:42;;;;;;;0.70;0.70;;;;;;;-2.97;97.56;97044.22;29373;218;63004;-58
2023/01/27 02:31:14;;;;;;;0.70;0.70;;;;;;;-2.93;97.44;97040.12;29373;230;63008;-58
2023/01/27 02:31:45;;;;;;;0.70;0.70;;;;;;;-2.90;97.57;97037.06;29373;208;63005;-61
2023/01/27 02:32:26;;;;;;;0.70;0.70;;;;;;;-2.88;97.23;97034.22;29373;235;63009;-60
2023/01/27 02:32:57;;;;;;;;;;;;;;;-2.91;96.81;97030.13;29974;982;28000;-58
2023/01/27 02:33:29;;;;;;;0.70;0.70;;;;;;;-2.92;96.71;97036.47;29422;267;63005;-59
2023/01/27 02:34:07;;;;;;;0.60;0.60;;;;;;;-2.92;96.98;97032.97;29395;250;63009;-58
2023/01/27 02:34:39;;;;;;;0.70;0.70;;;;;;;-2.91;97.08;97035.44;29371;210;64009;-58
2023/01/27 02:35:15;;;;;;;0.70;0.70;;;;;;;-2.92;97.19;97030.34;29373;262;63009;-58
2023/01/27 02:36:06;;;;;;;0.62;0.62;;;;;;;-2.90;96.97;97034.41;29373;210;63005;-59
2023/01/27 02:36:52;;;;;;;0.70;0.70;;;;;;;-2.81;97.15;97033.19;29395;238;63009;-59
2023/01/27 02:37:24;;;;;;;0.70;0.70;;;;;;;-2.77;96.29;97036.22;29395;250;63004;-60
2023/01/27 02:37:56;;;;;;;0.70;0.70;;;;;;;-2.76;96.18;97028.06;29373;206;63009;-60
2023/01/27 02:38:41;;;;;;;0.60;0.60;;;;;;;-2.79;95.55;97041.78;29373;218;63004;-58
2023/01/27 02:39:16;;;;;;;0.70;0.70;;;;;;;-2.84;95.84;97032.78;29373;202;63009;-58
2023/01/27 02:39:50;;;;;;;0.60;0.60;;;;;;;-2.88;95.85;97035.03;29371;219;64009;-59
2023/01/27 02:40:22;;;;;;;0.70;0.70;;;;;;;-2.90;95.76;97036.25;29373;284;63023;-58
2023/01/27 02:40:58;;;;;;;0.70;0.70;;;;;;;-2.92;95.92;97041.78;29373;211;63005;-60
2023/01/27 02:41:57;;;;;;;0.60;0.60;;;;;;;-2.91;95.90;97035.44;29373;262;63009;-58
2023/01/27 02:42:29;;;;;;;0.70;0.70;;;;;;;-2.90;96.10;97033.59;29373;239;63005;-59
2023/01/27 02:43:04;;;;;;;0.70;0.70;;;;;;;-2.91;96.11;97037.28;29373;226;63009;-60
2023/01/27 02:43:35;;;;;;;0.70;0.70;;;;;;;-2.88;96.12;97036.87;29373;237;63004;-60
2023/01/27 02:44:08;;;;;;;0.70;0.70;;;;;;;-2.77;95.80;97037.03;29373;224;63009;-60
2023/01/27 02:44:40;;;;;;;10.35;4.10;;;;;;;-2.68;94.70;97040.31;29369;219;64004;-61
2023/01/27 02:45:14;;;;;;;0.70;0.70;;;;;;;-2.63;94.18;97039.69;29371;202;64013;-60
2023/01/27 02:45:46;;;;;;;0.70;0.70;;;;;;;-2.64;94.11;97044.19;29373;202;63002;-59
2023/01/27 02:46:18;;;;;;;1.75;1.75;;;;;;;-2.68;94.11;97047.47;29373;249;63008;-59
2023/01/27 02:46:49;;;;;;;0.70;0.70;;;;;;;-2.73;93.67;97048.09;29373;210;63005;-58
2023/01/27 02:47:20;;;;;;;0.70;0.70;;;;;;;-2.78;94.09;97042.59;29373;203;63016;-59
2023/01/27 02:47:54;;;;;;;0.70;0.70;;;;;;;-2.81;94.11;97051.78;29371;233;64009;-59
2023/01/27 02:48:25;;;;;;;1.45;1.45;;;;;;;-2.82;94.39;97047.50;29373;231;63009;-59
2023/01/27 02:48:56;;;;;;;0.60;0.60;;;;;;;-2.83;94.54;97042.38;29373;236;63005;-59
2023/01/27 02:49:28;;;;;;;0.70;0.70;;;;;;;-2.83;94.66;97051.16;29373;218;63009;-59
2023/01/27 02:50:00;;;;;;;1.95;1.95;;;;;;;-2.79;94.52;97047.09;29373;235;63005;-60
2023/01/27 02:50:32;;;;;;;0.62;0.62;;;;;;;-2.76;94.43;97046.66;29373;290;63009;-59
2023/01/27 02:51:04;;;;;;;0.70;0.70;;;;;;;-2.67;94.08;97047.25;29373;198;63004;-60
2023/01/27 02:51:35;;;;;;;0.60;0.60;;;;;;;-2.69;93.56;97041.34;29371;209;64013;-60
2023/01/27 02:52:07;;;;;;;0.65;0.65;;;;;;;-2.73;93.25;97040.94;29373;251;63004;-59
2023/01/27 02:52:38;;;;;;;0.70;0.70;;;;;;;-2.74;93.73;97044.59;29373;205;63008;-59
2023/01/27 02:53:10;;;;;;;0.60;0.60;;;;;;;-2.77;93.65;97037.03;29371;196;64008;-59
2023/01/27 02:53:41;;;;;;;0.68;0.68;;;;;;;-2.80;93.79;97039.31;29373;209;63009;-59